createdAt,value
2023-04-28T00:02:21.873Z,983.7
2023-04-28T00:08:27.428Z,983.6
2023-04-28T00:12:29.942Z,983.5
2023-04-28T00:14:31.555Z,983.5
2023-04-28T00:18:34.826Z,983.4
2023-04-28T00:22:37.436Z,983.3
2023-04-28T00:24:38.995Z,983.3
2023-04-28T00:28:42.568Z,983.4
2023-04-28T00:30:43.256Z,983.3
2023-04-28T00:34:45.497Z,983.3
2023-04-28T00:39:31.552Z,983.2
2023-04-28T00:41:33.438Z,983.2
2023-04-28T00:45:36.764Z,983.2
2023-04-28T00:49:40.174Z,983.1
2023-04-28T00:51:42.046Z,983.1
2023-04-28T00:55:44.669Z,983.2
2023-04-28T00:59:48.125Z,983.2
2023-04-28T01:01:49.357Z,983.2
2023-04-28T01:05:51.832Z,983.1
2023-04-28T01:07:53.251Z,983.1
2023-04-28T01:11:56.409Z,983.1
2023-04-28T01:15:59.351Z,982.9
2023-04-28T01:18:00.856Z,983
2023-04-28T01:22:03.763Z,982.9
2023-04-28T01:24:05.099Z,983
2023-04-28T01:28:08.485Z,982.9
2023-04-28T01:32:10.780Z,982.7
2023-04-28T01:34:12.052Z,982.6
2023-04-28T01:38:15.371Z,982.8
2023-04-28T01:42:25.598Z,982.7
2023-04-28T01:44:19.841Z,982.7
2023-04-28T01:48:22.344Z,982.6
2023-04-28T01:50:23.922Z,982.6
2023-04-28T01:54:26.325Z,982.7
2023-04-28T01:58:29.712Z,982.6
2023-04-28T02:00:31.131Z,982.6
2023-04-28T02:04:34.476Z,982.6
2023-04-28T02:06:35.500Z,982.5
2023-04-28T02:10:38.536Z,982.5
2023-04-28T02:14:42.120Z,982.4
2023-04-28T02:16:43.490Z,982.4
2023-04-28T02:20:46.213Z,982.4
2023-04-28T02:24:49.652Z,982.4
2023-04-28T02:26:51.217Z,982.3
2023-04-28T02:30:54.552Z,982.2
2023-04-28T02:32:56.375Z,982.1
2023-04-28T02:34:57.521Z,982.3
2023-04-28T02:36:58.626Z,982.4
2023-04-28T02:41:01.260Z,982.2
2023-04-28T02:43:02.640Z,982.2
2023-04-28T02:45:04.255Z,982.1
2023-04-28T02:47:05.951Z,982.1
2023-04-28T02:49:16.820Z,982.1
2023-04-28T02:53:10.784Z,982.1
2023-04-28T02:57:14.025Z,982.1
2023-04-28T02:59:15.056Z,982.1
2023-04-28T03:03:18.736Z,982
2023-04-28T03:07:21.909Z,982.1
2023-04-28T03:09:23.301Z,982.1
2023-04-28T03:13:26.486Z,982.2
2023-04-28T03:15:28.062Z,982.2
2023-04-28T03:17:29.889Z,982.1
2023-04-28T03:19:31.800Z,982
2023-04-28T03:23:35.388Z,982
2023-04-28T03:25:36.796Z,982
2023-04-28T03:29:39.480Z,981.9
2023-04-28T03:31:40.806Z,981.9
2023-04-28T03:35:43.236Z,981.8
2023-04-28T03:39:46.355Z,981.8
2023-04-28T03:41:47.671Z,981.8
2023-04-28T03:45:49.860Z,981.7
2023-04-28T03:47:51.199Z,981.7
2023-04-28T03:51:54.069Z,981.7
2023-04-28T03:55:56.987Z,981.8
2023-04-28T03:57:58.076Z,981.8
2023-04-28T04:02:00.914Z,982
2023-04-28T04:06:03.698Z,981.9
2023-04-28T04:08:04.851Z,981.9
2023-04-28T04:12:09.362Z,981.8
2023-04-28T04:14:17.871Z,981.8
2023-04-28T04:18:15.599Z,981.8
2023-04-28T04:22:15.581Z,981.7
2023-04-28T04:24:17.089Z,981.7
2023-04-28T04:28:19.889Z,981.7
2023-04-28T04:30:21.711Z,981.6
2023-04-28T04:34:24.838Z,981.7
2023-04-28T04:38:27.034Z,981.6
2023-04-28T04:40:28.721Z,981.8
2023-04-28T04:44:31.477Z,981.8
2023-04-28T04:48:34.562Z,981.7
2023-04-28T04:50:36.354Z,981.7
2023-04-28T04:54:39.054Z,981.7
2023-04-28T04:56:40.074Z,981.6
2023-04-28T05:00:43.093Z,981.7
2023-04-28T05:04:46.740Z,981.5
2023-04-28T05:06:47.918Z,981.6
2023-04-28T05:10:50.842Z,981.5
2023-04-28T05:12:52.287Z,981.5
2023-04-28T05:16:55.270Z,981.5
2023-04-28T05:20:57.949Z,981.4
2023-04-28T05:22:59.811Z,981.3
2023-04-28T05:27:02.016Z,981.2
2023-04-28T05:31:04.111Z,981.2
2023-04-28T05:33:05.815Z,981.2
2023-04-28T05:37:08.047Z,981.1
2023-04-28T05:39:09.367Z,981.1
2023-04-28T05:43:11.944Z,981.2
2023-04-28T05:47:15.390Z,981.2
2023-04-28T05:49:16.481Z,981.2
2023-04-28T05:57:21.419Z,981.1
2023-04-28T05:59:22.413Z,981.1
2023-04-28T06:01:23.833Z,981.1
2023-04-28T06:03:25.762Z,981.1
2023-04-28T06:05:27.622Z,981.2
2023-04-28T06:09:30.321Z,981.2
2023-04-28T06:13:33.384Z,981.3
2023-04-28T06:15:34.840Z,981.3
2023-04-28T06:19:37.524Z,981.1
2023-04-28T06:21:38.716Z,981.1
2023-04-28T06:23:40.373Z,981
2023-04-28T06:25:41.928Z,981.1
2023-04-28T06:29:45.058Z,981.2
2023-04-28T06:31:46.931Z,981.2
2023-04-28T06:33:48.183Z,981.3
2023-04-28T06:35:49.724Z,981.1
2023-04-28T06:37:50.705Z,981.1
2023-04-28T06:41:52.792Z,981.1
2023-04-28T06:45:55.360Z,981.1
2023-04-28T06:47:57.335Z,981.2
2023-04-28T06:52:00.177Z,981.3
2023-04-28T06:54:01.687Z,981.2
2023-04-28T06:58:04.525Z,981.3
2023-04-28T07:02:07.649Z,981.2
2023-04-28T07:04:08.989Z,981.1
2023-04-28T07:08:10.846Z,981.2
2023-04-28T07:14:15.197Z,981.2
2023-04-28T07:16:16.886Z,981.3
2023-04-28T07:18:17.920Z,981.4
2023-04-28T07:20:19.183Z,981.4
2023-04-28T07:23:04.571Z,981.3
2023-04-28T07:29:08.723Z,981.4
2023-04-28T07:31:10.271Z,981.3
2023-04-28T07:35:12.640Z,981.3
2023-04-28T07:39:15.482Z,981.3
2023-04-28T07:41:17.355Z,981.4
2023-04-28T07:45:20.586Z,981.3
2023-04-28T07:47:21.546Z,981.2
2023-04-28T07:51:24.569Z,981.3
2023-04-28T07:55:27.336Z,981.3
2023-04-28T07:57:28.533Z,981.2
2023-04-28T08:01:31.987Z,981.2
2023-04-28T08:03:33.727Z,981.2
2023-04-28T08:07:36.800Z,981.3
2023-04-28T08:11:38.865Z,981.2
2023-04-28T08:13:40.075Z,981.2
2023-04-28T08:17:42.406Z,981.2
2023-04-28T08:21:45.406Z,981.2
2023-04-28T08:23:46.939Z,981.2
2023-04-28T08:27:49.500Z,981.3
2023-04-28T08:29:50.576Z,981.4
2023-04-28T08:33:54.858Z,981.3
2023-04-28T08:37:56.586Z,981.3
2023-04-28T08:39:57.838Z,981.4
2023-04-28T08:44:00.495Z,981.3
2023-04-28T08:46:02.300Z,981.4
2023-04-28T08:50:05.344Z,981.3
2023-04-28T08:56:09.673Z,981.5
2023-04-28T09:00:12.094Z,981.3
2023-04-28T09:06:16.188Z,981.1
2023-04-28T09:10:20.428Z,981.3
2023-04-28T09:12:22.167Z,981.2
2023-04-28T09:14:23.576Z,981.2
2023-04-28T09:16:24.916Z,981.3
2023-04-28T09:20:27.826Z,980.9
2023-04-28T09:22:28.881Z,980.9
2023-04-28T09:24:30.629Z,980.9
2023-04-28T09:26:31.611Z,980.8
2023-04-28T09:28:33.371Z,980.9
2023-04-28T09:32:37.412Z,980.9
2023-04-28T09:34:38.360Z,980.9
2023-04-28T09:36:39.278Z,980.9
2023-04-28T09:38:40.759Z,981
2023-04-28T09:42:44.243Z,980.9
2023-04-28T09:44:45.722Z,981
2023-04-28T09:48:48.341Z,981
2023-04-28T09:52:51.094Z,981
2023-04-28T09:54:52.743Z,981
2023-04-28T09:58:55.332Z,981
2023-04-28T10:02:57.654Z,981
2023-04-28T10:04:59.403Z,981
2023-04-28T10:09:02.407Z,981.1
2023-04-28T10:11:03.651Z,981.1
2023-04-28T10:15:06.697Z,981.1
2023-04-28T10:19:09.275Z,981.1
2023-04-28T10:21:10.682Z,980.9
2023-04-28T10:25:13.198Z,981
2023-04-28T10:27:14.495Z,981
2023-04-28T10:31:18.108Z,980.9
2023-04-28T10:35:21.441Z,980.9
2023-04-28T10:37:23.408Z,981
2023-04-28T10:41:25.766Z,980.9
2023-04-28T10:45:29.286Z,980.9
2023-04-28T10:47:30.369Z,981
2023-04-28T10:51:33.398Z,981
2023-04-28T10:53:35.142Z,981
2023-04-28T10:57:37.489Z,980.8
2023-04-28T11:01:40.926Z,981
2023-04-28T11:03:42.404Z,981.1
2023-04-28T11:07:44.978Z,980.9
2023-04-28T11:09:46.118Z,981
2023-04-28T11:13:49.038Z,981
2023-04-28T11:17:52.150Z,981
2023-04-28T11:19:53.744Z,981
2023-04-28T11:23:56.846Z,980.9
2023-04-28T11:27:59.186Z,981
2023-04-28T11:30:00.584Z,981
2023-04-28T11:34:03.432Z,980.9
2023-04-28T11:36:05.025Z,980.8
2023-04-28T11:40:08.492Z,980.8
2023-04-28T11:44:10.399Z,980.8
2023-04-28T11:46:11.442Z,980.9
2023-04-28T11:50:13.772Z,980.9
2023-04-28T11:52:15.460Z,980.8
2023-04-28T11:56:18.188Z,980.9
2023-04-28T12:00:20.952Z,980.8
2023-04-28T12:02:22.109Z,980.9
2023-04-28T12:06:24.950Z,980.9
2023-04-28T12:12:39.914Z,981
2023-04-28T12:16:32.356Z,981
2023-04-28T12:18:33.698Z,981
2023-04-28T12:22:36.735Z,981.1
2023-04-28T12:26:38.591Z,981
2023-04-28T12:28:39.584Z,981
2023-04-28T12:32:43.006Z,981.1
2023-04-28T12:34:44.788Z,981.2
2023-04-28T12:38:47.581Z,981.1
2023-04-28T12:42:51.135Z,981.1
2023-04-28T12:44:52.725Z,981.1
2023-04-28T12:48:55.067Z,981.2
2023-04-28T12:50:56.835Z,981.1
2023-04-28T12:54:59.860Z,981.2
2023-04-28T12:59:02.392Z,981
2023-04-28T13:01:03.805Z,981.2
2023-04-28T13:05:06.119Z,981.3
2023-04-28T13:09:09.301Z,981.3
2023-04-28T13:11:21.752Z,981.2
2023-04-28T13:15:13.421Z,981.2
2023-04-28T13:17:14.651Z,981.2
2023-04-28T13:21:17.522Z,980.9
2023-04-28T13:25:19.976Z,980.9
2023-04-28T13:27:21.224Z,980.8
2023-04-28T13:31:23.953Z,980.8
2023-04-28T13:33:24.917Z,980.8
2023-04-28T13:37:28.000Z,980.7
2023-04-28T13:41:30.653Z,980.7
2023-04-28T13:43:31.668Z,980.7
2023-04-28T13:47:35.035Z,980.9
2023-04-28T13:51:37.807Z,980.9
2023-04-28T13:53:39.507Z,980.8
2023-04-28T13:57:42.434Z,980.8
2023-04-28T13:59:43.765Z,980.9
2023-04-28T14:01:44.748Z,980.8
2023-04-28T14:03:46.322Z,980.7
2023-04-28T14:06:33.035Z,980.8
2023-04-28T14:08:33.091Z,980.7
2023-04-28T14:10:34.872Z,980.7
2023-04-28T14:14:39.017Z,980.5
2023-04-28T14:16:38.563Z,980.6
2023-04-28T14:18:40.311Z,980.7
2023-04-28T14:20:41.438Z,980.7
2023-04-28T14:24:44.460Z,980.3
2023-04-28T14:30:49.172Z,980.4
2023-04-28T14:34:51.415Z,980.4
2023-04-28T14:36:53.036Z,980.3
2023-04-28T14:40:55.790Z,980
2023-04-28T14:44:57.909Z,980.2
2023-04-28T14:46:58.864Z,980.1
2023-04-28T14:51:01.599Z,979.9
2023-04-28T14:53:03.195Z,979.9
2023-04-28T14:57:06.499Z,980
2023-04-28T15:01:09.659Z,980.1
2023-04-28T15:03:10.756Z,980.3
2023-04-28T15:07:14.095Z,980.4
2023-04-28T15:09:15.917Z,980.5
2023-04-28T15:13:18.619Z,980.4
2023-04-28T15:17:21.552Z,980.6
2023-04-28T15:19:23.089Z,980.5
2023-04-28T15:23:26.062Z,980.5
2023-04-28T15:27:29.201Z,980.4
2023-04-28T15:29:30.111Z,980.5
2023-04-28T15:33:32.651Z,980.5
2023-04-28T15:35:34.340Z,980.5
2023-04-28T15:39:36.844Z,980.4
2023-04-28T15:43:38.932Z,980.4
2023-04-28T15:45:40.234Z,980.2
2023-04-28T15:49:42.742Z,980
2023-04-28T15:51:43.705Z,980
2023-04-28T15:55:46.758Z,980.3
2023-04-28T15:59:49.827Z,980.2
2023-04-28T16:01:50.918Z,980.3
2023-04-28T16:05:53.069Z,980.4
2023-04-28T16:09:55.856Z,980.3
2023-04-28T16:11:56.740Z,980.1
2023-04-28T16:15:58.857Z,980.2
2023-04-28T16:18:00.312Z,980.2
2023-04-28T16:20:02.129Z,980.2
2023-04-28T16:22:03.825Z,980.1
2023-04-28T16:26:06.381Z,979.9
2023-04-28T16:28:08.828Z,980
2023-04-28T16:30:09.737Z,979.9
2023-04-28T16:32:10.817Z,979.9
2023-04-28T16:34:12.429Z,980
2023-04-28T16:38:15.299Z,980
2023-04-28T16:40:17.180Z,980
2023-04-28T16:42:18.354Z,979.8
2023-04-28T16:44:19.421Z,979.9
2023-04-28T16:48:21.785Z,979.9
2023-04-28T16:50:23.204Z,980
2023-04-28T16:54:25.684Z,980
2023-04-28T16:58:28.430Z,980
2023-04-28T17:00:29.494Z,980
2023-04-28T17:04:32.201Z,980
2023-04-28T17:08:35.097Z,979.9
2023-04-28T17:10:36.014Z,980
2023-04-28T17:14:38.108Z,979.8
2023-04-28T17:16:39.017Z,980
2023-04-28T17:20:41.762Z,980.1
2023-04-28T17:24:44.445Z,980
2023-04-28T17:26:45.982Z,980
2023-04-28T17:30:48.719Z,980.1
2023-04-28T17:32:50.135Z,980
2023-04-28T17:36:53.078Z,979.9
2023-04-28T17:40:55.472Z,980
2023-04-28T17:42:56.564Z,980
2023-04-28T17:46:59.834Z,979.9
2023-04-28T17:51:02.432Z,980
2023-04-28T17:53:04.092Z,980
2023-04-28T17:57:07.314Z,980.2
2023-04-28T17:59:08.219Z,980.1
2023-04-28T18:01:09.259Z,980.1
2023-04-28T18:03:10.549Z,980.2
2023-04-28T18:07:12.978Z,980.2
2023-04-28T18:09:13.870Z,980.1
2023-04-28T18:11:15.647Z,980.1
2023-04-28T18:13:17.231Z,980.1
2023-04-28T18:15:18.164Z,980.2
2023-04-28T18:19:20.356Z,980.3
2023-04-28T18:21:21.951Z,980.3
2023-04-28T18:23:23.253Z,980.3
2023-04-28T18:25:24.141Z,980.3
2023-04-28T18:29:27.071Z,980.2
2023-04-28T18:31:28.459Z,980.1
2023-04-28T18:35:30.977Z,980.1
2023-04-28T18:39:33.243Z,980.2
2023-04-28T18:41:34.365Z,980
2023-04-28T18:45:38.119Z,980.2
2023-04-28T18:49:41.086Z,980.3
2023-04-28T18:51:42.950Z,980.3
2023-04-28T18:55:45.816Z,980.1
2023-04-28T18:57:47.635Z,980.2
2023-04-28T19:01:50.584Z,980.1
2023-04-28T19:05:53.802Z,980.1
2023-04-28T19:07:55.575Z,980.1
2023-04-28T19:11:58.998Z,980.1
2023-04-28T19:14:00.586Z,980.2
2023-04-28T19:18:03.527Z,980.3
2023-04-28T19:22:06.299Z,980.4
2023-04-28T19:24:07.681Z,980.3
2023-04-28T19:28:10.307Z,980.3
2023-04-28T19:32:12.990Z,980.4
2023-04-28T19:34:14.415Z,980.4
2023-04-28T19:38:26.163Z,980.6
2023-04-28T19:40:18.730Z,980.6
2023-04-28T19:44:20.782Z,980.6
2023-04-28T19:48:23.933Z,980.5
2023-04-28T19:50:25.816Z,980.6
2023-04-28T19:54:29.244Z,980.6
2023-04-28T19:56:30.577Z,980.7
2023-04-28T20:00:32.863Z,980.8
2023-04-28T20:04:35.225Z,980.7
2023-04-28T20:06:36.237Z,980.7
2023-04-28T20:10:39.093Z,980.7
2023-04-28T20:14:41.836Z,980.7
2023-04-28T20:16:43.039Z,980.8
2023-04-28T20:20:46.451Z,980.8
2023-04-28T20:22:47.745Z,980.7
2023-04-28T20:24:49.255Z,980.8
2023-04-28T20:26:50.682Z,980.8
2023-04-28T20:30:53.568Z,980.7
2023-04-28T20:32:55.501Z,980.7
2023-04-28T20:36:59.060Z,980.7
2023-04-28T20:39:00.417Z,980.7
2023-04-28T20:43:03.602Z,980.8
2023-04-28T20:47:08.129Z,980.7
2023-04-28T20:49:08.153Z,980.7
2023-04-28T20:53:55.614Z,980.6
2023-04-28T20:57:58.643Z,980.6
2023-04-28T20:59:59.907Z,980.6
2023-04-28T21:04:02.774Z,980.8
2023-04-28T21:08:05.907Z,980.8
2023-04-28T21:10:07.255Z,980.8
2023-04-28T21:14:10.193Z,980.7
2023-04-28T21:16:12.039Z,980.6
2023-04-28T21:20:14.257Z,980.8
2023-04-28T21:24:16.451Z,980.8
2023-04-28T21:26:18.053Z,980.8
2023-04-28T21:30:21.346Z,980.8
2023-04-28T21:32:22.601Z,980.8
2023-04-28T21:36:24.942Z,980.8
2023-04-28T21:40:27.298Z,980.7
2023-04-28T21:42:28.318Z,980.7
2023-04-28T21:46:30.970Z,980.8
2023-04-28T21:50:34.024Z,980.7
2023-04-28T21:52:35.541Z,980.8
2023-04-28T21:56:38.093Z,980.7
2023-04-28T21:58:39.271Z,980.8
2023-04-28T22:02:41.314Z,980.9
2023-04-28T22:06:43.427Z,980.8
2023-04-28T22:08:44.504Z,980.8
2023-04-28T22:12:46.988Z,980.8
2023-04-28T22:14:48.287Z,980.8
2023-04-28T22:18:51.945Z,980.8
2023-04-28T22:22:54.951Z,980.9
2023-04-28T22:24:56.550Z,980.8
2023-04-28T22:28:59.569Z,980.8
2023-04-28T22:33:02.495Z,980.8
2023-04-28T22:35:03.595Z,980.9
2023-04-28T22:39:06.448Z,980.8
2023-04-28T22:41:08.293Z,980.9
2023-04-28T22:43:09.571Z,980.9
2023-04-28T22:45:11.182Z,981
2023-04-28T22:49:14.377Z,980.9
2023-04-28T22:51:15.414Z,980.9
2023-04-28T22:53:17.119Z,980.9
2023-04-28T22:55:18.674Z,980.9
2023-04-28T22:57:19.602Z,981
2023-04-28T23:01:21.621Z,981
2023-04-28T23:05:25.184Z,980.9
2023-04-28T23:07:27.075Z,981
2023-04-28T23:11:30.010Z,981
2023-04-28T23:13:31.662Z,981
2023-04-28T23:17:33.860Z,981
2023-04-28T23:21:36.978Z,981
2023-04-28T23:23:37.945Z,981
2023-04-28T23:27:40.969Z,981
2023-04-28T23:31:43.399Z,981
2023-04-28T23:33:45.138Z,981
2023-04-28T23:37:48.583Z,980.8
2023-04-28T23:39:50.440Z,980.9
2023-04-28T23:43:53.078Z,980.8
2023-04-28T23:47:56.386Z,980.9
2023-04-28T23:49:57.692Z,981
2023-04-28T23:54:00.506Z,980.9
2023-04-28T23:56:02.205Z,980.9
